Time;durP1;ratioP1;P1;durP2;ratioP2;P2;SDS_P1;SDS_P2;PMS_P1;PMS_P2;Temp;Humidity;BMP_temperature;BMP_pressure;BME280_temperature;BME280_humidity;BME280_pressure;Samples;Min_cycle;Max_cycle;Signal;HPM_P1;HPM_P2
2023/05/31 00:00:12;;;;;;;1.58;1.05;;;;;;;;;;5035437;28;20029;-79
2023/05/31 00:02:37;;;;;;;1.60;1.10;;;;;;;;;;5001484;28;20044;-82
2023/05/31 00:05:03;;;;;;;0.82;0.82;;;;;;;;;;5036034;28;20021;-80
2023/05/31 00:07:28;;;;;;;1.50;0.90;;;;;;;;;;5035215;28;20041;-80
2023/05/31 00:09:53;;;;;;;1.92;0.80;;;;;;;;;;5001305;28;20056;-80
2023/05/31 00:12:19;;;;;;;0.85;0.85;;;;;;;;;;5035433;28;20357;-79
2023/05/31 00:14:45;;;;;;;1.65;0.95;;;;;;;;;;5035179;28;20037;-81
2023/05/31 00:17:10;;;;;;;2.00;1.08;;;;;;;;;;5035304;28;20055;-80
2023/05/31 00:19:36;;;;;;;1.10;0.90;;;;;;;;;;5017500;28;20096;-82
2023/05/31 00:22:01;;;;;;;0.93;0.90;;;;;;;;;;5035281;28;20116;-81
2023/05/31 00:24:27;;;;;;;1.38;1.27;;;;;;;;;;5035049;28;20029;-81
2023/05/31 00:26:52;;;;;;;1.98;1.02;;;;;;;;;;5034913;28;20104;-81
2023/05/31 00:29:17;;;;;;;1.15;1.00;;;;;;;;;;5000736;28;20033;-81
2023/05/31 00:31:43;;;;;;;1.33;1.15;;;;;;;;;;5035010;28;20392;-81
2023/05/31 00:34:10;;;;;;;2.55;1.10;;;;;;;;;;5017266;28;20029;-81
2023/05/31 00:36:35;;;;;;;1.25;1.02;;;;;;;;;;5016991;28;20403;-81
2023/05/31 00:39:01;;;;;;;1.65;1.00;;;;;;;;;;5035034;28;20037;-81
2023/05/31 00:41:26;;;;;;;1.25;1.00;;;;;;;;;;5035022;28;20121;-81
2023/05/31 00:43:53;;;;;;;1.08;1.00;;;;;;;;;;5016732;28;20052;-80
2023/05/31 00:46:31;;;;;;;1.20;1.10;;;;;;;;;;5017660;28;20021;-81
2023/05/31 00:48:57;;;;;;;1.10;0.90;;;;;;;;;;5016914;28;20029;-81
2023/05/31 00:51:24;;;;;;;1.98;1.05;;;;;;;;;;5017116;28;20029;-81
2023/05/31 00:53:50;;;;;;;1.33;1.10;;;;;;;;;;5034393;28;20056;-82
2023/05/31 00:56:16;;;;;;;1.25;1.00;;;;;;;;;;5017085;28;20465;-81
2023/05/31 00:58:42;;;;;;;1.83;1.20;;;;;;;;;;5000357;28;20120;-81
2023/05/31 01:01:08;;;;;;;1.75;1.10;;;;;;;;;;5016689;28;20022;-79
2023/05/31 01:03:33;;;;;;;1.48;1.10;;;;;;;;;;5016703;28;20029;-81
2023/05/31 01:06:00;;;;;;;1.25;1.15;;;;;;;;;;5000522;28;20472;-81
2023/05/31 01:08:26;;;;;;;1.17;1.00;;;;;;;;;;5016871;28;20029;-81
2023/05/31 01:10:51;;;;;;;1.92;1.05;;;;;;;;;;4999904;28;20381;-81
2023/05/31 01:13:29;;;;;;;1.13;1.00;;;;;;;;;;5016941;28;20040;-81
2023/05/31 01:15:58;;;;;;;4.00;1.10;;;;;;;;;;5016517;28;20032;-81
2023/05/31 01:18:31;;;;;;;1.73;0.93;;;;;;;;;;5000301;28;20032;-80
2023/05/31 01:21:01;;;;;;;1.15;1.05;;;;;;;;;;5016926;28;20388;-80
2023/05/31 01:23:26;;;;;;;1.63;0.98;;;;;;;;;;5000144;28;20503;-80
2023/05/31 01:26:17;;;;;;;0.98;0.88;;;;;;;;;;5016235;28;20078;-80
2023/05/31 01:28:42;;;;;;;1.35;1.17;;;;;;;;;;5033806;28;20427;-80
2023/05/31 01:31:09;;;;;;;0.80;0.80;;;;;;;;;;5016405;28;20108;-79
2023/05/31 01:33:35;;;;;;;2.80;0.93;;;;;;;;;;5033622;28;20115;-80
2023/05/31 01:36:01;;;;;;;3.15;1.70;;;;;;;;;;5016017;28;20035;-80
2023/05/31 01:38:26;;;;;;;1.38;1.02;;;;;;;;;;5016032;28;20034;-81
2023/05/31 01:40:52;;;;;;;1.50;0.90;;;;;;;;;;5033636;28;20080;-82
2023/05/31 01:43:18;;;;;;;1.17;0.80;;;;;;;;;;5015787;28;20061;-82
2023/05/31 01:45:44;;;;;;;1.42;1.10;;;;;;;;;;4999494;28;20032;-81
2023/05/31 01:48:10;;;;;;;0.95;0.95;;;;;;;;;;5015919;28;20033;-81
2023/05/31 01:50:36;;;;;;;1.30;1.20;;;;;;;;;;5033459;28;20030;-81
2023/05/31 01:53:03;;;;;;;1.48;1.00;;;;;;;;;;4999504;28;20036;-81
2023/05/31 01:55:28;;;;;;;0.90;0.90;;;;;;;;;;5015812;28;20057;-81
2023/05/31 01:57:55;;;;;;;1.23;0.95;;;;;;;;;;4999903;28;20064;-81
2023/05/31 02:00:22;;;;;;;0.95;0.95;;;;;;;;;;4999347;28;20431;-81
2023/05/31 02:02:47;;;;;;;1.33;1.10;;;;;;;;;;5015819;28;20032;-81
2023/05/31 02:05:13;;;;;;;1.58;1.10;;;;;;;;;;5033669;28;20034;-81
2023/05/31 02:07:44;;;;;;;1.58;1.17;;;;;;;;;;5015686;28;20097;-81
2023/05/31 02:10:10;;;;;;;1.10;1.00;;;;;;;;;;5033066;28;20025;-81
2023/05/31 02:12:35;;;;;;;0.90;0.90;;;;;;;;;;4999030;28;20022;-80
2023/05/31 02:15:02;;;;;;;1.20;1.05;;;;;;;;;;5015602;28;20481;-80
2023/05/31 02:17:28;;;;;;;1.85;1.40;;;;;;;;;;4999063;28;20448;-80
2023/05/31 02:19:54;;;;;;;0.98;0.98;;;;;;;;;;4999012;28;20064;-80
2023/05/31 02:22:20;;;;;;;2.15;1.00;;;;;;;;;;5019621;28;20468;-81
2023/05/31 02:24:46;;;;;;;2.05;1.08;;;;;;;;;;5037398;28;20112;-81
2023/05/31 02:27:13;;;;;;;2.80;1.00;;;;;;;;;;5003130;28;20026;-81
2023/05/31 02:29:38;;;;;;;1.05;1.00;;;;;;;;;;5003172;28;20030;-80
2023/05/31 02:32:04;;;;;;;0.90;0.77;;;;;;;;;;5037450;28;20087;-81
2023/05/31 02:34:30;;;;;;;0.88;0.88;;;;;;;;;;5019748;28;20083;-80
2023/05/31 02:36:56;;;;;;;1.48;1.05;;;;;;;;;;5019537;28;20036;-81
2023/05/31 02:39:21;;;;;;;1.13;1.02;;;;;;;;;;5019322;28;20037;-82
2023/05/31 02:41:47;;;;;;;1.10;1.00;;;;;;;;;;5003074;28;20034;-81
2023/05/31 02:44:13;;;;;;;1.35;1.20;;;;;;;;;;5019239;28;20048;-81
2023/05/31 02:46:38;;;;;;;1.90;1.30;;;;;;;;;;5019170;28;20025;-82
2023/05/31 02:49:04;;;;;;;0.80;0.80;;;;;;;;;;5037501;28;20434;-82
2023/05/31 02:51:30;;;;;;;1.77;0.98;;;;;;;;;;4994666;28;20518;-81
2023/05/31 02:53:55;;;;;;;4.60;1.10;;;;;;;;;;5036722;28;20035;-82
2023/05/31 02:56:21;;;;;;;1.38;1.10;;;;;;;;;;5036631;28;20041;-82
2023/05/31 02:58:46;;;;;;;1.27;1.17;;;;;;;;;;5036730;28;20055;-81
2023/05/31 03:01:13;;;;;;;1.10;1.00;;;;;;;;;;5018762;28;20025;-81
2023/05/31 03:03:39;;;;;;;1.40;1.02;;;;;;;;;;5036522;28;20116;-82
2023/05/31 03:06:04;;;;;;;1.45;1.17;;;;;;;;;;5018573;28;20064;-83
2023/05/31 03:08:30;;;;;;;1.25;1.10;;;;;;;;;;5036995;28;20053;-81
2023/05/31 03:10:55;;;;;;;0.90;0.90;;;;;;;;;;5018445;28;20030;-81
2023/05/31 03:13:21;;;;;;;1.83;1.10;;;;;;;;;;5018765;28;20025;-82
2023/05/31 03:15:46;;;;;;;1.05;0.93;;;;;;;;;;5036489;28;20030;-81
2023/05/31 03:18:12;;;;;;;1.88;1.10;;;;;;;;;;5018648;28;20124;-81
2023/05/31 03:20:37;;;;;;;1.83;1.05;;;;;;;;;;5018436;28;20036;-82
2023/05/31 03:23:03;;;;;;;1.20;1.10;;;;;;;;;;5036057;28;20030;-82
2023/05/31 03:25:28;;;;;;;2.25;1.20;;;;;;;;;;5018601;28;20040;-81
2023/05/31 03:27:54;;;;;;;3.20;1.10;;;;;;;;;;5001966;28;20041;-81
2023/05/31 03:30:19;;;;;;;0.98;0.80;;;;;;;;;;5002082;28;20040;-81
2023/05/31 03:32:45;;;;;;;2.40;1.48;;;;;;;;;;5034636;28;20025;-82
2023/05/31 03:35:10;;;;;;;1.30;1.10;;;;;;;;;;5036888;28;20445;-82
2023/05/31 03:37:36;;;;;;;0.90;0.90;;;;;;;;;;5019030;28;20029;-82
2023/05/31 03:40:01;;;;;;;1.48;1.00;;;;;;;;;;5036230;28;20039;-81
2023/05/31 03:42:26;;;;;;;1.10;1.00;;;;;;;;;;5036506;28;20412;-82
2023/05/31 03:44:52;;;;;;;1.00;0.90;;;;;;;;;;5035965;28;20435;-80
2023/05/31 03:47:17;;;;;;;1.95;1.10;;;;;;;;;;5036060;28;20034;-79
2023/05/31 03:49:43;;;;;;;3.03;1.13;;;;;;;;;;5036006;28;20037;-80
2023/05/31 03:52:12;;;;;;;2.15;1.20;;;;;;;;;;5018376;28;20500;-80
2023/05/31 03:54:38;;;;;;;1.77;1.30;;;;;;;;;;5019141;28;20021;-81
2023/05/31 03:57:04;;;;;;;1.27;1.08;;;;;;;;;;5017991;28;20381;-81
2023/05/31 03:59:29;;;;;;;1.50;1.10;;;;;;;;;;5018508;28;20053;-80
2023/05/31 04:01:55;;;;;;;0.82;0.82;;;;;;;;;;5017543;28;20107;-80
2023/05/31 04:04:20;;;;;;;1.25;1.00;;;;;;;;;;5018265;28;20544;-81
2023/05/31 04:06:46;;;;;;;1.42;1.30;;;;;;;;;;5001568;28;20037;-80
2023/05/31 04:09:11;;;;;;;1.42;1.20;;;;;;;;;;5018710;28;20035;-79
2023/05/31 04:11:37;;;;;;;1.20;1.10;;;;;;;;;;5017647;28;20492;-80
2023/05/31 04:14:02;;;;;;;1.20;1.10;;;;;;;;;;5001363;28;20491;-79
2023/05/31 04:16:28;;;;;;;1.17;1.08;;;;;;;;;;5018040;28;20120;-77
2023/05/31 04:18:53;;;;;;;1.25;1.13;;;;;;;;;;5017644;28;20029;-80
2023/05/31 04:21:18;;;;;;;6.05;2.95;;;;;;;;;;5017498;28;20037;-81
2023/05/31 04:23:44;;;;;;;7.95;2.65;;;;;;;;;;5017480;28;20029;-77
2023/05/31 04:26:16;;;;;;;10.82;3.13;;;;;;;;;;5035381;28;20036;-80
2023/05/31 04:28:42;;;;;;;10.35;3.35;;;;;;;;;;5035406;28;20040;-81
2023/05/31 04:31:08;;;;;;;10.35;3.30;;;;;;;;;;5017420;28;20030;-83
2023/05/31 04:33:35;;;;;;;11.70;3.00;;;;;;;;;;5017006;28;20029;-78
2023/05/31 04:36:03;;;;;;;6.25;2.92;;;;;;;;;;5017677;28;20437;-79
2023/05/31 04:38:30;;;;;;;12.35;3.28;;;;;;;;;;5017896;28;20029;-82
2023/05/31 04:40:57;;;;;;;11.40;2.90;;;;;;;;;;5000935;28;20025;-81
2023/05/31 04:43:23;;;;;;;8.43;3.00;;;;;;;;;;5003914;28;20077;-82
2023/05/31 04:45:49;;;;;;;8.65;3.05;;;;;;;;;;4997677;28;20076;-82
2023/05/31 04:48:15;;;;;;;7.78;2.78;;;;;;;;;;5015299;28;20030;-82
2023/05/31 04:50:40;;;;;;;10.75;3.63;;;;;;;;;;4997509;28;20038;-79
2023/05/31 04:53:06;;;;;;;10.00;2.88;;;;;;;;;;5015382;28;20034;-78
2023/05/31 04:55:31;;;;;;;9.48;3.80;;;;;;;;;;4997807;28;20432;-81
2023/05/31 04:57:57;;;;;;;14.57;3.95;;;;;;;;;;4997930;28;20121;-79
2023/05/31 05:00:22;;;;;;;11.75;3.50;;;;;;;;;;5015566;28;20396;-82
2023/05/31 05:02:47;;;;;;;9.07;3.17;;;;;;;;;;4981285;28;20378;-82
2023/05/31 05:05:13;;;;;;;24.00;4.85;;;;;;;;;;5017570;28;20061;-79
2023/05/31 05:07:38;;;;;;;29.23;5.40;;;;;;;;;;5014821;28;20121;-81
2023/05/31 05:10:04;;;;;;;22.15;6.00;;;;;;;;;;4996985;28;20036;-80
2023/05/31 05:12:30;;;;;;;26.58;6.35;;;;;;;;;;4981187;28;20065;-80
2023/05/31 05:14:55;;;;;;;22.80;6.07;;;;;;;;;;5014937;28;20477;-82
2023/05/31 05:17:21;;;;;;;21.85;5.35;;;;;;;;;;4981004;28;20038;-82
2023/05/31 05:19:46;;;;;;;19.13;5.70;;;;;;;;;;4980622;28;20026;-81
2023/05/31 05:22:12;;;;;;;12.48;4.85;;;;;;;;;;5014404;28;20168;-82
2023/05/31 05:24:37;;;;;;;13.93;4.70;;;;;;;;;;4996915;28;20088;-82
2023/05/31 05:27:03;;;;;;;14.27;4.43;;;;;;;;;;5014449;28;20477;-81
2023/05/31 05:29:28;;;;;;;13.43;4.43;;;;;;;;;;4996186;28;20045;-82
2023/05/31 05:31:54;;;;;;;13.45;4.78;;;;;;;;;;4996860;28;20429;-82
2023/05/31 05:34:20;;;;;;;11.05;4.60;;;;;;;;;;4996655;28;20037;-82
2023/05/31 05:36:45;;;;;;;10.73;3.90;;;;;;;;;;4997205;28;20037;-82
2023/05/31 05:39:11;;;;;;;9.77;3.53;;;;;;;;;;4980448;28;20117;-82
2023/05/31 05:41:36;;;;;;;8.68;3.55;;;;;;;;;;5014114;28;20034;-82
2023/05/31 05:44:02;;;;;;;8.45;2.92;;;;;;;;;;5032455;28;20054;-81
2023/05/31 05:46:28;;;;;;;8.48;3.67;;;;;;;;;;5016020;28;20025;-81
2023/05/31 05:48:53;;;;;;;8.25;3.38;;;;;;;;;;5016950;28;20456;-80
2023/05/31 05:51:19;;;;;;;9.25;3.25;;;;;;;;;;5034094;28;20442;-80
2023/05/31 05:53:44;;;;;;;6.78;3.10;;;;;;;;;;5016370;28;20425;-80
2023/05/31 05:56:17;;;;;;;9.20;3.15;;;;;;;;;;5032767;28;20374;-81
2023/05/31 05:58:43;;;;;;;6.18;2.95;;;;;;;;;;5017514;28;20060;-82
2023/05/31 06:01:08;;;;;;;8.45;3.10;;;;;;;;;;5015862;28;20030;-81
2023/05/31 06:03:34;;;;;;;5.90;2.90;;;;;;;;;;5015741;28;20033;-82
2023/05/31 06:05:59;;;;;;;7.18;2.72;;;;;;;;;;5015939;28;20061;-82
2023/05/31 06:08:25;;;;;;;6.68;2.67;;;;;;;;;;5033603;28;20123;-83
2023/05/31 06:10:50;;;;;;;5.15;2.40;;;;;;;;;;5016871;28;20117;-81
2023/05/31 06:13:16;;;;;;;5.57;2.80;;;;;;;;;;5017889;28;20040;-81
2023/05/31 06:15:41;;;;;;;6.50;2.42;;;;;;;;;;5035183;28;20053;-81
2023/05/31 06:18:08;;;;;;;5.60;2.53;;;;;;;;;;5016596;28;20030;-81
2023/05/31 06:20:34;;;;;;;4.75;2.20;;;;;;;;;;5034739;28;20029;-81
2023/05/31 06:22:59;;;;;;;4.45;1.83;;;;;;;;;;5034405;28;20540;-82
2023/05/31 06:25:25;;;;;;;6.47;2.35;;;;;;;;;;5035007;28;20036;-81
2023/05/31 06:27:50;;;;;;;3.40;2.42;;;;;;;;;;5016286;28;20037;-81
2023/05/31 06:30:16;;;;;;;3.45;2.00;;;;;;;;;;5017203;28;20088;-82
2023/05/31 06:32:41;;;;;;;4.43;2.13;;;;;;;;;;5003298;28;20119;-81
2023/05/31 06:35:07;;;;;;;6.25;2.08;;;;;;;;;;5004465;28;20035;-82
2023/05/31 06:37:33;;;;;;;3.58;1.92;;;;;;;;;;4999642;28;20056;-82
2023/05/31 06:39:58;;;;;;;4.80;2.15;;;;;;;;;;4999468;28;20117;-83
2023/05/31 06:42:24;;;;;;;2.75;1.95;;;;;;;;;;5033195;28;20133;-82
2023/05/31 06:44:51;;;;;;;5.00;1.90;;;;;;;;;;5015436;28;20473;-83
2023/05/31 06:47:16;;;;;;;3.17;1.63;;;;;;;;;;5033324;28;20029;-83
2023/05/31 06:49:42;;;;;;;4.97;1.60;;;;;;;;;;5033322;28;20079;-83
2023/05/31 06:52:08;;;;;;;6.18;2.15;;;;;;;;;;5033475;28;20051;-82
2023/05/31 06:54:37;;;;;;;7.13;1.70;;;;;;;;;;4999701;28;20037;-83
2023/05/31 06:57:04;;;;;;;7.88;2.05;;;;;;;;;;5015733;28;20039;-84
2023/05/31 06:59:29;;;;;;;7.03;1.77;;;;;;;;;;5016143;28;20048;-82
2023/05/31 07:01:56;;;;;;;4.80;1.85;;;;;;;;;;5015524;28;20061;-82
2023/05/31 07:04:21;;;;;;;6.10;1.70;;;;;;;;;;5015528;28;20037;-84
2023/05/31 07:06:47;;;;;;;2.90;1.60;;;;;;;;;;5017138;28;20447;-82
2023/05/31 07:09:12;;;;;;;4.95;2.10;;;;;;;;;;5036808;28;20064;-82
2023/05/31 07:11:42;;;;;;;2.70;1.60;;;;;;;;;;5037638;28;20109;-81
2023/05/31 07:14:07;;;;;;;4.32;1.92;;;;;;;;;;4986285;28;20057;-85
2023/05/31 07:16:33;;;;;;;3.85;2.28;;;;;;;;;;5019492;28;20037;-83
2023/05/31 07:18:59;;;;;;;2.80;1.70;;;;;;;;;;5003266;28;20061;-83
2023/05/31 07:21:25;;;;;;;4.13;2.15;;;;;;;;;;5019242;28;20037;-80
2023/05/31 07:23:51;;;;;;;5.80;1.85;;;;;;;;;;5036913;28;20025;-83
2023/05/31 07:26:17;;;;;;;4.90;2.10;;;;;;;;;;5036716;28;20036;-81
2023/05/31 07:28:43;;;;;;;4.65;1.90;;;;;;;;;;5002887;28;20473;-84
2023/05/31 07:31:09;;;;;;;3.38;1.70;;;;;;;;;;5003040;28;20048;-83
2023/05/31 07:33:35;;;;;;;5.55;1.70;;;;;;;;;;5002128;28;20464;-83
2023/05/31 07:36:00;;;;;;;6.10;1.80;;;;;;;;;;5002102;28;20041;-84
2023/05/31 07:38:26;;;;;;;2.10;1.40;;;;;;;;;;5018760;28;20057;-84
2023/05/31 07:40:52;;;;;;;5.85;1.45;;;;;;;;;;5018380;28;20087;-84
2023/05/31 07:43:21;;;;;;;4.07;1.55;;;;;;;;;;5018042;28;20052;-85
2023/05/31 07:45:50;;;;;;;6.35;1.70;;;;;;;;;;5036524;28;20393;-84
2023/05/31 07:48:18;;;;;;;2.85;1.52;;;;;;;;;;5002440;28;20380;-84
2023/05/31 07:50:44;;;;;;;5.38;1.60;;;;;;;;;;5035984;28;20428;-84
2023/05/31 07:53:10;;;;;;;3.47;1.50;;;;;;;;;;5018170;28;20080;-85
2023/05/31 07:55:37;;;;;;;3.38;1.73;;;;;;;;;;5018255;28;20037;-84
2023/05/31 07:58:02;;;;;;;4.07;1.98;;;;;;;;;;5018794;28;20107;-85
2023/05/31 08:00:28;;;;;;;2.78;1.52;;;;;;;;;;5035796;28;20029;-84
2023/05/31 08:02:53;;;;;;;1.88;1.40;;;;;;;;;;5018495;28;20032;-84
2023/05/31 08:05:19;;;;;;;5.47;1.38;;;;;;;;;;5001662;28;20033;-84
2023/05/31 08:07:44;;;;;;;3.20;1.58;;;;;;;;;;5001427;28;20373;-84
2023/05/31 08:10:11;;;;;;;4.47;1.70;;;;;;;;;;5017839;28;20084;-83
2023/05/31 08:12:37;;;;;;;2.70;1.58;;;;;;;;;;5035846;28;20025;-83
2023/05/31 08:15:02;;;;;;;2.65;1.48;;;;;;;;;;5018085;28;20476;-83
2023/05/31 08:17:31;;;;;;;4.40;1.77;;;;;;;;;;4985702;28;20053;-84
2023/05/31 08:19:57;;;;;;;1.67;1.40;;;;;;;;;;5016700;28;20039;-84
2023/05/31 08:22:22;;;;;;;3.15;1.67;;;;;;;;;;5018047;28;20488;-83
2023/05/31 08:24:49;;;;;;;5.63;1.50;;;;;;;;;;5001204;28;20033;-83
2023/05/31 08:27:14;;;;;;;2.72;1.50;;;;;;;;;;5002229;28;20039;-83
2023/05/31 08:29:40;;;;;;;5.68;1.60;;;;;;;;;;5017713;28;20037;-83
2023/05/31 08:32:12;;;;;;;2.75;1.40;;;;;;;;;;5017462;28;20038;-84
2023/05/31 08:34:39;;;;;;;4.65;1.50;;;;;;;;;;5001297;28;20341;-84
2023/05/31 08:37:04;;;;;;;1.98;1.33;;;;;;;;;;5017515;28;20168;-84
2023/05/31 08:39:30;;;;;;;4.57;1.90;;;;;;;;;;5035639;28;20029;-83
2023/05/31 08:42:01;;;;;;;4.88;1.83;;;;;;;;;;5017405;28;20032;-83
2023/05/31 08:44:30;;;;;;;3.47;1.52;;;;;;;;;;5017612;28;20045;-84
2023/05/31 08:47:15;;;;;;;6.45;1.77;;;;;;;;;;5017426;28;20025;-84
2023/05/31 08:49:42;;;;;;;3.78;1.88;;;;;;;;;;5017418;28;20022;-84
2023/05/31 08:52:07;;;;;;;3.05;1.70;;;;;;;;;;5017074;28;20479;-84
2023/05/31 08:54:34;;;;;;;3.35;1.50;;;;;;;;;;5000987;28;20115;-83
2023/05/31 08:57:02;;;;;;;2.80;1.70;;;;;;;;;;5000555;28;20021;-83
2023/05/31 08:59:27;;;;;;;2.42;1.45;;;;;;;;;;5016699;28;20105;-84
2023/05/31 09:01:53;;;;;;;4.88;1.70;;;;;;;;;;5035192;28;20061;-83
2023/05/31 09:04:18;;;;;;;2.35;1.50;;;;;;;;;;5016742;28;20033;-83
2023/05/31 09:06:44;;;;;;;4.03;1.88;;;;;;;;;;5017268;28;20080;-84
2023/05/31 09:09:09;;;;;;;4.10;1.52;;;;;;;;;;5000289;28;20025;-83
2023/05/31 09:11:40;;;;;;;3.40;1.42;;;;;;;;;;5034722;28;20212;-83
2023/05/31 09:14:08;;;;;;;5.68;1.50;;;;;;;;;;5000956;28;20033;-83
2023/05/31 09:16:34;;;;;;;3.35;1.75;;;;;;;;;;5017095;28;20021;-83
2023/05/31 09:19:02;;;;;;;5.30;1.60;;;;;;;;;;5000272;28;20040;-83
2023/05/31 09:21:28;;;;;;;2.92;1.67;;;;;;;;;;5016574;28;20071;-82
2023/05/31 09:23:55;;;;;;;2.33;1.88;;;;;;;;;;5000880;28;20053;-83
2023/05/31 09:26:21;;;;;;;2.72;1.73;;;;;;;;;;5034633;28;20108;-83
2023/05/31 09:28:53;;;;;;;3.97;1.70;;;;;;;;;;5000325;28;20164;-83
2023/05/31 09:31:20;;;;;;;6.20;1.90;;;;;;;;;;5016501;28;20116;-82
2023/05/31 09:33:51;;;;;;;2.40;1.65;;;;;;;;;;4997219;28;20397;-82
2023/05/31 09:36:30;;;;;;;4.82;1.90;;;;;;;;;;5015509;28;20033;-82
2023/05/31 09:39:09;;;;;;;4.30;1.77;;;;;;;;;;5016574;28;20033;-82
2023/05/31 09:41:35;;;;;;;3.63;1.67;;;;;;;;;;5034141;28;20025;-82
2023/05/31 09:44:00;;;;;;;3.03;1.63;;;;;;;;;;4999962;28;20049;-82
2023/05/31 09:46:26;;;;;;;5.70;1.77;;;;;;;;;;5000782;28;20029;-82
2023/05/31 09:49:01;;;;;;;4.28;1.77;;;;;;;;;;4999966;28;20396;-83
2023/05/31 09:51:27;;;;;;;3.90;1.70;;;;;;;;;;5016715;28;20036;-82
2023/05/31 09:53:55;;;;;;;2.13;1.77;;;;;;;;;;5016316;28;20468;-83
2023/05/31 09:56:21;;;;;;;3.40;1.88;;;;;;;;;;5016430;28;20116;-84
2023/05/31 09:58:48;;;;;;;4.30;1.85;;;;;;;;;;5016110;28;20462;-83
2023/05/31 10:01:15;;;;;;;3.78;1.63;;;;;;;;;;5016311;28;20028;-83
2023/05/31 10:03:40;;;;;;;4.18;1.50;;;;;;;;;;4996370;28;20048;-84
2023/05/31 10:06:06;;;;;;;2.95;1.60;;;;;;;;;;4996894;28;20473;-83
2023/05/31 10:08:32;;;;;;;4.22;1.75;;;;;;;;;;5033726;28;20116;-83
2023/05/31 10:11:02;;;;;;;4.50;1.83;;;;;;;;;;5016287;28;20502;-83
2023/05/31 10:13:28;;;;;;;2.35;1.73;;;;;;;;;;5004437;28;20023;-82
2023/05/31 10:15:56;;;;;;;3.13;2.10;;;;;;;;;;5006550;28;20025;-84
2023/05/31 10:18:27;;;;;;;3.78;1.90;;;;;;;;;;5009169;28;20125;-82
2023/05/31 10:20:55;;;;;;;2.38;1.60;;;;;;;;;;5023238;28;20021;-83
2023/05/31 10:23:24;;;;;;;7.20;1.80;;;;;;;;;;5024468;28;20532;-83
2023/05/31 10:26:13;;;;;;;3.15;1.70;;;;;;;;;;5021068;28;20029;-83
2023/05/31 10:29:02;;;;;;;3.42;1.90;;;;;;;;;;5022813;28;20036;-82
2023/05/31 10:31:33;;;;;;;2.95;1.80;;;;;;;;;;5011368;28;20092;-83
2023/05/31 10:34:15;;;;;;;2.70;1.75;;;;;;;;;;5025130;28;20060;-83
2023/05/31 10:36:41;;;;;;;3.80;1.67;;;;;;;;;;5018029;28;20105;-83
2023/05/31 10:39:17;;;;;;;4.60;1.70;;;;;;;;;;5001707;28;20067;-81
2023/05/31 10:41:44;;;;;;;4.22;1.90;;;;;;;;;;5018720;28;20025;-82
2023/05/31 10:44:15;;;;;;;3.10;1.75;;;;;;;;;;5003524;28;20049;-82
2023/05/31 10:46:41;;;;;;;2.20;1.40;;;;;;;;;;5020635;28;20097;-82
2023/05/31 10:49:09;;;;;;;13.05;2.22;;;;;;;;;;5019837;28;20373;-81
2023/05/31 10:51:37;;;;;;;8.25;2.78;;;;;;;;;;5037259;28;20033;-81
2023/05/31 10:54:03;;;;;;;6.03;2.33;;;;;;;;;;5019863;28;20029;-84
2023/05/31 10:56:28;;;;;;;6.10;2.40;;;;;;;;;;5019409;28;20052;-81
2023/05/31 10:58:54;;;;;;;5.57;2.15;;;;;;;;;;5003233;28;20432;-81
2023/05/31 11:01:21;;;;;;;7.30;2.58;;;;;;;;;;5020533;28;20057;-81
2023/05/31 11:03:51;;;;;;;6.03;2.40;;;;;;;;;;5003817;28;20064;-82
2023/05/31 11:06:24;;;;;;;4.32;2.13;;;;;;;;;;5003667;28;20033;-82
2023/05/31 11:08:59;;;;;;;6.75;2.22;;;;;;;;;;5020059;28;20029;-83
2023/05/31 11:11:49;;;;;;;3.45;2.13;;;;;;;;;;5019247;28;20030;-81
2023/05/31 11:14:26;;;;;;;9.48;2.38;;;;;;;;;;5020063;28;20060;-83
2023/05/31 11:16:56;;;;;;;3.95;2.15;;;;;;;;;;5037144;28;20416;-81
2023/05/31 11:19:31;;;;;;;6.22;2.08;;;;;;;;;;5036787;28;20021;-82
2023/05/31 11:21:59;;;;;;;6.40;2.05;;;;;;;;;;5036868;28;20161;-82
2023/05/31 11:24:47;;;;;;;9.25;2.15;;;;;;;;;;5020670;28;20033;-81
2023/05/31 11:27:14;;;;;;;5.68;2.00;;;;;;;;;;5019836;28;20109;-81
2023/05/31 11:30:00;;;;;;;3.20;1.83;;;;;;;;;;5038434;28;20033;-77
2023/05/31 11:32:35;;;;;;;4.10;1.80;;;;;;;;;;5040745;28;20025;-85
2023/05/31 11:35:08;;;;;;;5.07;2.22;;;;;;;;;;5025328;28;20345;-83
2023/05/31 11:37:37;;;;;;;4.35;2.05;;;;;;;;;;5039761;28;20029;-85
2023/05/31 11:40:05;;;;;;;3.30;1.85;;;;;;;;;;5037565;28;20040;-83
2023/05/31 11:42:32;;;;;;;6.68;2.33;;;;;;;;;;5037394;28;20132;-81
2023/05/31 11:45:03;;;;;;;5.13;2.08;;;;;;;;;;5020465;28;20037;-83
2023/05/31 11:47:35;;;;;;;5.35;2.25;;;;;;;;;;5035935;28;20022;-83
2023/05/31 11:50:01;;;;;;;4.32;1.75;;;;;;;;;;5018900;28;20036;-82
2023/05/31 11:52:28;;;;;;;3.97;1.90;;;;;;;;;;5001820;28;20037;-82
2023/05/31 11:54:54;;;;;;;6.80;1.95;;;;;;;;;;5000874;28;20037;-81
2023/05/31 11:57:20;;;;;;;3.45;1.85;;;;;;;;;;5018955;28;20033;-82
2023/05/31 11:59:46;;;;;;;2.28;1.58;;;;;;;;;;5017942;28;20033;-81
2023/05/31 12:02:12;;;;;;;5.18;1.80;;;;;;;;;;5001755;28;20030;-82
2023/05/31 12:04:42;;;;;;;6.88;1.88;;;;;;;;;;5018648;28;20103;-81
2023/05/31 12:07:11;;;;;;;4.25;2.05;;;;;;;;;;5035909;28;20459;-83
2023/05/31 12:09:37;;;;;;;6.53;1.70;;;;;;;;;;5017770;28;20153;-82
2023/05/31 12:12:05;;;;;;;3.45;1.80;;;;;;;;;;5035953;28;20037;-82
2023/05/31 12:14:31;;;;;;;5.03;2.00;;;;;;;;;;4985694;28;20029;-82
2023/05/31 12:17:01;;;;;;;4.55;2.40;;;;;;;;;;5017752;28;20460;-82
2023/05/31 12:19:26;;;;;;;4.45;2.28;;;;;;;;;;5001392;28;20025;-82
2023/05/31 12:21:51;;;;;;;4.35;2.10;;;;;;;;;;5017869;28;20102;-82
2023/05/31 12:24:17;;;;;;;3.08;2.08;;;;;;;;;;5017798;28;20036;-82
2023/05/31 12:26:44;;;;;;;5.80;2.45;;;;;;;;;;5017434;28;20160;-82
2023/05/31 12:29:14;;;;;;;7.57;2.53;;;;;;;;;;5018405;28;20361;-81
2023/05/31 12:31:40;;;;;;;4.60;2.10;;;;;;;;;;5001470;28;20033;-82
2023/05/31 12:34:06;;;;;;;4.72;2.30;;;;;;;;;;5001619;28;20037;-82
2023/05/31 12:36:52;;;;;;;4.45;2.08;;;;;;;;;;5017613;28;20025;-82
2023/05/31 12:39:22;;;;;;;4.20;2.10;;;;;;;;;;5017037;28;20120;-82
2023/05/31 12:41:49;;;;;;;4.03;2.13;;;;;;;;;;5000907;28;20476;-82
2023/05/31 12:44:22;;;;;;;5.20;2.05;;;;;;;;;;4997320;28;20116;-82
2023/05/31 12:46:48;;;;;;;3.88;2.00;;;;;;;;;;4998564;28;20045;-82
2023/05/31 12:49:21;;;;;;;5.65;2.40;;;;;;;;;;4997884;28;20025;-82
2023/05/31 12:51:47;;;;;;;3.33;2.07;;;;;;;;;;5015369;28;20032;-82
2023/05/31 12:54:15;;;;;;;3.80;1.90;;;;;;;;;;5015006;28;20037;-82
2023/05/31 12:56:41;;;;;;;5.45;2.10;;;;;;;;;;4981482;28;20402;-82
2023/05/31 12:59:06;;;;;;;4.80;2.33;;;;;;;;;;5014837;28;20109;-82
2023/05/31 13:01:33;;;;;;;3.22;2.20;;;;;;;;;;5015362;28;20029;-82
2023/05/31 13:03:59;;;;;;;4.13;1.90;;;;;;;;;;4997183;28;20501;-82
2023/05/31 13:06:25;;;;;;;3.35;1.90;;;;;;;;;;4997473;28;20068;-82
2023/05/31 13:08:50;;;;;;;4.60;2.15;;;;;;;;;;4981126;28;20034;-82
2023/05/31 13:11:15;;;;;;;2.90;1.88;;;;;;;;;;4980827;28;20030;-81
2023/05/31 13:13:42;;;;;;;3.35;2.00;;;;;;;;;;5016544;28;20036;-80
2023/05/31 13:16:07;;;;;;;3.08;1.90;;;;;;;;;;5014810;28;20041;-80
2023/05/31 13:18:33;;;;;;;3.08;1.70;;;;;;;;;;5015330;28;20393;-81
2023/05/31 13:20:58;;;;;;;4.78;2.10;;;;;;;;;;4997150;28;20026;-80
2023/05/31 13:23:24;;;;;;;4.25;2.03;;;;;;;;;;4997581;28;20033;-80
2023/05/31 13:25:50;;;;;;;4.13;1.90;;;;;;;;;;4997213;28;20029;-80
2023/05/31 13:28:17;;;;;;;4.20;2.20;;;;;;;;;;4997233;28;20482;-81
2023/05/31 13:30:42;;;;;;;2.65;1.67;;;;;;;;;;5014655;28;20025;-81
2023/05/31 13:33:08;;;;;;;3.50;1.77;;;;;;;;;;4996951;28;20036;-82
2023/05/31 13:35:35;;;;;;;4.70;2.08;;;;;;;;;;4997552;28;20025;-81
2023/05/31 13:38:01;;;;;;;3.42;2.00;;;;;;;;;;4980929;28;20030;-81
2023/05/31 13:40:26;;;;;;;6.10;2.15;;;;;;;;;;5015266;28;20077;-80
2023/05/31 13:42:52;;;;;;;3.63;1.90;;;;;;;;;;5017720;28;20064;-80
2023/05/31 13:45:17;;;;;;;6.65;2.83;;;;;;;;;;5020982;28;20036;-80
2023/05/31 13:47:43;;;;;;;4.88;2.00;;;;;;;;;;5004811;28;20037;-80
2023/05/31 13:50:09;;;;;;;8.25;2.17;;;;;;;;;;5021369;28;20033;-79
2023/05/31 13:52:35;;;;;;;5.32;2.10;;;;;;;;;;5038182;28;20026;-79
2023/05/31 13:55:01;;;;;;;7.55;1.95;;;;;;;;;;5018849;28;20025;-79
2023/05/31 13:57:26;;;;;;;3.28;2.22;;;;;;;;;;5035894;28;20507;-80
2023/05/31 13:59:51;;;;;;;5.55;1.85;;;;;;;;;;5003337;28;20071;-79
2023/05/31 14:02:17;;;;;;;4.82;2.30;;;;;;;;;;5002604;28;20109;-81
2023/05/31 14:04:42;;;;;;;2.45;1.73;;;;;;;;;;5017080;28;20049;-81
2023/05/31 14:07:08;;;;;;;4.78;1.85;;;;;;;;;;5001479;28;20147;-79
2023/05/31 14:09:33;;;;;;;2.28;1.70;;;;;;;;;;5002034;28;20029;-80
2023/05/31 14:11:59;;;;;;;3.90;2.15;;;;;;;;;;5034668;28;20029;-81
2023/05/31 14:14:25;;;;;;;6.93;2.13;;;;;;;;;;5017668;28;20161;-83
2023/05/31 14:16:52;;;;;;;4.43;2.63;;;;;;;;;;5018275;28;20025;-80
2023/05/31 14:19:17;;;;;;;9.60;3.05;;;;;;;;;;5018370;28;20551;-81
2023/05/31 14:21:43;;;;;;;5.85;3.05;;;;;;;;;;5016523;28;20029;-81
2023/05/31 14:24:08;;;;;;;5.97;3.50;;;;;;;;;;5037362;28;20033;-80
2023/05/31 14:26:34;;;;;;;7.15;2.95;;;;;;;;;;5001508;28;20065;-80
2023/05/31 14:28:59;;;;;;;7.45;3.40;;;;;;;;;;5001213;28;20045;-81
2023/05/31 14:31:25;;;;;;;4.93;3.33;;;;;;;;;;5034934;28;20057;-80
2023/05/31 14:33:50;;;;;;;6.85;3.55;;;;;;;;;;5001163;28;20456;-81
2023/05/31 14:36:16;;;;;;;6.93;3.78;;;;;;;;;;5020690;28;20440;-80
2023/05/31 14:38:41;;;;;;;5.47;3.20;;;;;;;;;;5035720;28;20088;-81
2023/05/31 14:41:07;;;;;;;5.68;3.10;;;;;;;;;;5021310;28;20033;-81